createdAt,value
2019-01-03T00:00:34.604Z,17.30
2019-01-03T00:03:15.291Z,18.37
2019-01-03T00:05:58.474Z,17.60
2019-01-03T00:08:39.554Z,17.60
2019-01-03T00:11:26.204Z,17.70
2019-01-03T00:14:14.860Z,17.48
2019-01-03T00:17:01.621Z,17.75
2019-01-03T00:19:54.023Z,17.55
2019-01-03T00:22:40.991Z,17.80
2019-01-03T00:25:30.611Z,17.82
2019-01-03T00:28:21.208Z,17.40
2019-01-03T00:31:08.072Z,17.70
2019-01-03T00:33:53.235Z,17.73
2019-01-03T00:36:56.527Z,17.25
2019-01-03T00:39:39.034Z,16.05
2019-01-03T00:42:25.771Z,16.45
2019-01-03T00:45:13.703Z,16.02
2019-01-03T00:47:53.460Z,16.50
2019-01-03T00:50:46.534Z,16.80
2019-01-03T00:53:34.106Z,17.50
2019-01-03T00:56:17.900Z,18.45
2019-01-03T00:59:05.157Z,17.70
2019-01-03T01:02:02.671Z,17.75
2019-01-03T01:05:08.880Z,17.75
2019-01-03T01:07:56.023Z,17.15
2019-01-03T01:10:55.186Z,17.50
2019-01-03T01:13:44.033Z,17.30
2019-01-03T01:16:51.800Z,17.17
2019-01-03T01:19:40.845Z,17.50
2019-01-03T01:22:28.141Z,17.10
2019-01-03T01:25:18.623Z,17.05
2019-01-03T01:28:00.520Z,17.57
2019-01-03T01:30:42.747Z,17.57
2019-01-03T01:33:42.411Z,17.45
2019-01-03T01:36:40.415Z,17.07
2019-01-03T01:39:28.578Z,17.87
2019-01-03T01:42:09.319Z,15.88
2019-01-03T01:44:57.223Z,15.45
2019-01-03T01:47:48.391Z,15.60
2019-01-03T01:50:36.283Z,16.05
2019-01-03T01:53:15.054Z,16.00
2019-01-03T01:56:06.723Z,15.85
2019-01-03T01:58:45.283Z,16.50
2019-01-03T02:01:25.300Z,16.65
2019-01-03T02:04:13.220Z,16.00
2019-01-03T02:07:00.400Z,16.20
2019-01-03T02:09:56.018Z,15.75
2019-01-03T02:12:46.195Z,15.40
2019-01-03T02:15:41.295Z,15.10
2019-01-03T02:18:33.856Z,15.30
2019-01-03T02:21:22.653Z,15.53
2019-01-03T02:24:09.427Z,16.05
2019-01-03T02:26:56.360Z,15.78
2019-01-03T02:30:01.172Z,15.20
2019-01-03T02:32:52.244Z,15.32
2019-01-03T02:35:34.251Z,15.53
2019-01-03T02:38:37.276Z,14.38
2019-01-03T02:41:28.260Z,14.93
2019-01-03T02:44:19.639Z,14.68
2019-01-03T02:47:26.367Z,14.05
2019-01-03T02:50:13.183Z,14.87
2019-01-03T02:52:54.976Z,15.55
2019-01-03T02:55:58.196Z,14.90
2019-01-03T02:58:41.043Z,15.85
2019-01-03T03:01:23.265Z,16.05
2019-01-03T03:04:07.073Z,14.87
2019-01-03T03:06:53.839Z,14.90
2019-01-03T03:09:32.471Z,14.20
2019-01-03T03:12:38.922Z,13.60
2019-01-03T03:15:21.248Z,13.88
2019-01-03T03:18:11.866Z,13.80
2019-01-03T03:21:00.224Z,13.75
2019-01-03T03:23:51.405Z,14.07
2019-01-03T03:26:39.400Z,14.55
2019-01-03T03:29:24.079Z,13.93
2019-01-03T03:32:11.160Z,13.78
2019-01-03T03:34:57.775Z,14.38
2019-01-03T03:37:38.409Z,14.53
2019-01-03T03:40:29.407Z,13.28
2019-01-03T03:43:20.310Z,13.30
2019-01-03T03:46:20.376Z,13.78
2019-01-03T03:49:03.688Z,12.40
2019-01-03T03:51:50.386Z,12.40
2019-01-03T03:54:50.579Z,13.08
2019-01-03T03:57:40.119Z,13.05
2019-01-03T04:00:44.588Z,12.50
2019-01-03T04:03:40.420Z,13.18
2019-01-03T04:06:35.719Z,13.83
2019-01-03T04:09:29.536Z,12.47
2019-01-03T04:12:17.443Z,12.00
2019-01-03T04:14:58.332Z,12.70
2019-01-03T04:17:45.363Z,12.47
2019-01-03T04:20:28.036Z,12.37
2019-01-03T04:23:10.270Z,11.73
2019-01-03T04:25:58.347Z,12.10
2019-01-03T04:28:49.689Z,12.80
2019-01-03T04:31:38.180Z,8.20
2019-01-03T04:34:29.373Z,7.50
2019-01-03T04:37:16.585Z,10.68
2019-01-03T04:40:03.668Z,10.50
2019-01-03T04:42:57.814Z,13.65
2019-01-03T04:45:45.753Z,12.70
2019-01-03T04:48:28.676Z,12.78
2019-01-03T04:51:15.386Z,12.45
2019-01-03T04:54:03.232Z,12.23
2019-01-03T04:56:51.774Z,12.68
2019-01-03T04:59:38.928Z,12.65
2019-01-03T05:02:25.644Z,12.70
2019-01-03T05:05:15.068Z,12.50
2019-01-03T05:08:02.673Z,12.00
2019-01-03T05:10:50.818Z,13.95
2019-01-03T05:13:37.531Z,14.25
2019-01-03T05:16:38.767Z,12.03
2019-01-03T05:19:26.258Z,12.33
2019-01-03T05:22:14.260Z,14.25
2019-01-03T05:25:09.867Z,13.18
2019-01-03T05:27:56.713Z,13.50
2019-01-03T05:30:43.702Z,12.45
2019-01-03T05:33:31.649Z,12.65
2019-01-03T05:36:18.678Z,12.90
2019-01-03T05:39:09.345Z,12.85
2019-01-03T05:42:03.499Z,12.75
2019-01-03T05:44:43.595Z,12.23
2019-01-03T05:47:47.078Z,12.50
2019-01-03T05:50:38.757Z,12.15
2019-01-03T05:53:23.351Z,11.85
2019-01-03T05:56:13.047Z,11.88
2019-01-03T05:59:00.414Z,13.18
2019-01-03T06:01:47.561Z,11.35
2019-01-03T06:04:34.429Z,11.70
2019-01-03T06:07:25.956Z,12.70
2019-01-03T06:10:15.925Z,12.40
2019-01-03T06:12:57.316Z,11.90
2019-01-03T06:15:51.875Z,12.33
2019-01-03T06:18:38.900Z,13.32
2019-01-03T06:21:20.503Z,12.45
2019-01-03T06:24:08.604Z,11.85
2019-01-03T06:26:59.456Z,13.10
2019-01-03T06:29:56.606Z,12.40
2019-01-03T06:32:47.618Z,12.40
2019-01-03T06:35:50.827Z,13.70
2019-01-03T06:38:57.251Z,14.43
2019-01-03T06:41:48.480Z,13.65
2019-01-03T06:44:37.657Z,14.15
2019-01-03T06:47:25.452Z,14.25
2019-01-03T06:50:23.245Z,14.18
2019-01-03T06:53:20.442Z,14.65
2019-01-03T06:56:07.144Z,14.73
2019-01-03T06:58:58.287Z,12.73
2019-01-03T07:01:37.155Z,13.90
2019-01-03T07:04:28.323Z,13.50
2019-01-03T07:07:18.764Z,13.55
2019-01-03T07:10:05.384Z,14.90
2019-01-03T07:12:52.431Z,14.80
2019-01-03T07:15:49.579Z,16.23
2019-01-03T07:18:36.564Z,13.65
2019-01-03T07:21:28.081Z,15.25
2019-01-03T07:24:28.405Z,13.40
2019-01-03T07:27:15.124Z,15.93
2019-01-03T07:30:10.065Z,17.30
2019-01-03T07:33:03.378Z,13.05
2019-01-03T07:35:50.192Z,14.03
2019-01-03T07:38:47.504Z,13.90
2019-01-03T07:41:44.600Z,14.00
2019-01-03T07:44:44.710Z,13.40
2019-01-03T07:47:31.908Z,14.10
2019-01-03T07:50:18.185Z,14.20
2019-01-03T07:53:14.458Z,13.90
2019-01-03T07:56:14.316Z,14.50
2019-01-03T07:59:14.969Z,15.40
2019-01-03T08:02:03.197Z,13.90
2019-01-03T08:04:51.249Z,15.15
2019-01-03T08:07:45.612Z,13.13
2019-01-03T08:10:32.704Z,15.80
2019-01-03T08:13:23.839Z,13.98
2019-01-03T08:16:11.853Z,14.05
2019-01-03T08:18:58.994Z,15.00
2019-01-03T08:21:43.288Z,15.43
2019-01-03T08:24:30.438Z,14.00
2019-01-03T08:27:17.897Z,14.35
2019-01-03T08:30:06.681Z,15.53
2019-01-03T08:32:50.740Z,15.35
2019-01-03T08:35:37.693Z,15.30
2019-01-03T08:38:25.762Z,15.35
2019-01-03T08:41:14.308Z,15.60
2019-01-03T08:44:05.768Z,14.53
2019-01-03T08:47:00.640Z,16.35
2019-01-03T08:49:48.564Z,14.78
2019-01-03T08:52:42.277Z,14.13
2019-01-03T08:55:28.977Z,13.90
2019-01-03T08:58:22.974Z,15.25
2019-01-03T09:01:26.437Z,15.23
2019-01-03T09:04:13.711Z,15.32
2019-01-03T09:07:08.428Z,14.80
2019-01-03T09:10:00.921Z,15.45
2019-01-03T09:12:57.547Z,15.43
2019-01-03T09:15:44.563Z,15.45
2019-01-03T09:18:38.638Z,15.55
2019-01-03T09:21:29.572Z,15.70
2019-01-03T09:24:16.177Z,16.37
2019-01-03T09:27:16.486Z,15.00
2019-01-03T09:30:10.206Z,15.48
2019-01-03T09:32:48.004Z,16.35
2019-01-03T09:35:35.035Z,15.45
2019-01-03T09:38:37.439Z,14.70
2019-01-03T09:41:21.921Z,15.00
2019-01-03T09:44:08.949Z,15.05
2019-01-03T09:46:38.300Z,15.32
2019-01-03T09:49:08.832Z,16.50
2019-01-03T09:51:38.897Z,15.60
2019-01-03T09:54:07.791Z,14.38
2019-01-03T09:56:36.689Z,14.90
2019-01-03T09:59:05.876Z,15.40
2019-01-03T10:01:34.735Z,16.35
2019-01-03T10:04:03.960Z,14.60
2019-01-03T10:06:33.162Z,13.83
2019-01-03T10:09:02.028Z,14.13
2019-01-03T10:11:30.773Z,14.60
2019-01-03T10:13:59.648Z,15.85
2019-01-03T10:16:28.976Z,15.05
2019-01-03T10:18:57.959Z,15.28
2019-01-03T10:21:26.813Z,15.35
2019-01-03T10:23:56.527Z,14.60
2019-01-03T10:26:25.816Z,15.30
2019-01-03T10:28:54.761Z,15.13
2019-01-03T10:31:24.047Z,14.98
2019-01-03T10:33:57.763Z,19.30
2019-01-03T10:36:27.629Z,14.30
2019-01-03T10:38:56.566Z,14.20
2019-01-03T10:41:25.610Z,14.25
2019-01-03T10:43:54.606Z,14.60
2019-01-03T10:46:23.885Z,14.35
2019-01-03T10:48:52.838Z,15.95
2019-01-03T10:51:21.717Z,14.60
2019-01-03T10:53:50.603Z,15.65
2019-01-03T10:56:19.424Z,13.90
2019-01-03T10:58:48.523Z,14.45
2019-01-03T11:01:17.431Z,15.18
2019-01-03T11:03:46.340Z,15.23
2019-01-03T11:06:15.123Z,15.30
2019-01-03T11:08:43.883Z,15.18
2019-01-03T11:11:13.352Z,15.38
2019-01-03T11:13:42.311Z,14.75
2019-01-03T11:16:11.120Z,14.23
2019-01-03T11:18:40.048Z,14.50
2019-01-03T11:21:08.925Z,14.35
2019-01-03T11:23:38.219Z,12.93
2019-01-03T11:26:07.026Z,13.80
2019-01-03T11:28:35.922Z,12.33
2019-01-03T11:31:04.882Z,13.38
2019-01-03T11:33:33.834Z,11.70
2019-01-03T11:36:02.611Z,11.33
2019-01-03T11:38:31.663Z,12.75
2019-01-03T11:41:00.792Z,11.22
2019-01-03T11:43:30.393Z,10.08
2019-01-03T11:45:59.618Z,9.13
2019-01-03T11:48:28.455Z,8.98
2019-01-03T11:50:57.556Z,8.98
2019-01-03T11:53:27.479Z,8.60
2019-01-03T11:55:56.338Z,9.15
2019-01-03T11:58:25.257Z,9.13
2019-01-03T12:00:54.535Z,8.15
2019-01-03T12:03:23.452Z,7.80
2019-01-03T12:05:53.492Z,8.00
2019-01-03T12:08:23.319Z,27.22
2019-01-03T12:10:52.227Z,11.95
2019-01-03T12:13:21.044Z,9.30
2019-01-03T12:15:51.160Z,8.15
2019-01-03T12:18:20.420Z,8.40
2019-01-03T12:20:49.267Z,10.03
2019-01-03T12:23:19.404Z,10.03
2019-01-03T12:25:48.308Z,9.30
2019-01-03T12:28:17.256Z,9.60
2019-01-03T12:30:47.064Z,10.15
2019-01-03T12:33:16.903Z,10.80
2019-01-03T12:35:45.765Z,10.80
2019-01-03T12:38:14.591Z,10.15
2019-01-03T12:40:43.471Z,10.48
2019-01-03T12:43:12.360Z,10.18
2019-01-03T12:45:41.251Z,12.00
2019-01-03T12:48:12.107Z,12.23
2019-01-03T12:50:41.021Z,11.95
2019-01-03T12:53:09.983Z,11.80
2019-01-03T12:55:38.868Z,11.90
2019-01-03T12:58:07.859Z,12.15
2019-01-03T13:00:36.742Z,11.30
2019-01-03T13:03:05.707Z,12.07
2019-01-03T13:05:34.520Z,11.80
2019-01-03T13:08:03.526Z,13.70
2019-01-03T13:10:32.833Z,12.70
2019-01-03T13:13:01.701Z,13.48
2019-01-03T13:15:30.637Z,12.73
2019-01-03T13:17:59.534Z,12.90
2019-01-03T13:20:28.451Z,12.93
2019-01-03T13:22:57.203Z,13.05
2019-01-03T13:25:26.240Z,13.18
2019-01-03T13:27:55.451Z,17.12
2019-01-03T13:30:24.251Z,13.95
2019-01-03T13:32:53.132Z,13.95
2019-01-03T13:35:21.938Z,13.55
2019-01-03T13:37:51.214Z,12.90
2019-01-03T13:40:20.091Z,13.10
2019-01-03T13:42:49.052Z,12.82
2019-01-03T13:45:18.095Z,13.60
2019-01-03T13:47:48.162Z,13.18
2019-01-03T13:50:17.507Z,13.40
2019-01-03T13:52:48.616Z,15.30
2019-01-03T13:55:17.363Z,13.45
2019-01-03T13:57:46.104Z,13.18
2019-01-03T14:00:15.326Z,13.45
2019-01-03T14:02:44.080Z,13.85
2019-01-03T14:05:12.934Z,13.43
2019-01-03T14:07:41.767Z,14.05
2019-01-03T14:10:10.960Z,14.38
2019-01-03T14:12:40.072Z,14.15
2019-01-03T14:15:09.407Z,14.35
2019-01-03T14:17:38.457Z,14.20
2019-01-03T14:20:10.335Z,13.75
2019-01-03T14:22:39.211Z,13.90
2019-01-03T14:25:08.321Z,13.68
2019-01-03T14:27:37.181Z,13.68
2019-01-03T14:30:06.904Z,13.45
2019-01-03T14:32:36.808Z,13.75
2019-01-03T14:35:06.000Z,15.88
2019-01-03T14:37:35.540Z,14.83
2019-01-03T14:40:04.770Z,12.90
2019-01-03T14:42:33.778Z,12.70
2019-01-03T14:45:02.871Z,12.47
2019-01-03T14:47:31.955Z,12.98
2019-01-03T14:50:01.161Z,11.65
2019-01-03T14:52:30.180Z,11.90
2019-01-03T14:54:59.012Z,11.45
2019-01-03T14:57:28.992Z,11.55
2019-01-03T14:59:57.909Z,11.28
2019-01-03T15:02:27.136Z,11.53
2019-01-03T15:04:56.669Z,10.80
2019-01-03T15:07:27.567Z,11.57
2019-01-03T15:09:56.601Z,10.60
2019-01-03T15:12:25.655Z,18.50
2019-01-03T15:14:54.879Z,11.60
2019-01-03T15:17:23.626Z,12.07
2019-01-03T15:19:53.793Z,11.85
2019-01-03T15:22:22.823Z,10.72
2019-01-03T15:24:51.756Z,10.85
2019-01-03T15:27:20.506Z,9.90
2019-01-03T15:29:49.336Z,10.48
2019-01-03T15:32:18.198Z,10.43
2019-01-03T15:34:47.039Z,11.18
2019-01-03T15:37:15.869Z,10.25
2019-01-03T15:39:44.888Z,9.85
2019-01-03T15:42:13.884Z,8.98
2019-01-03T15:44:42.760Z,11.88
2019-01-03T15:47:11.907Z,9.33
2019-01-03T15:49:42.485Z,9.93
2019-01-03T15:52:11.387Z,9.08
2019-01-03T15:54:40.180Z,9.00
2019-01-03T15:57:09.012Z,9.00
2019-01-03T15:59:38.270Z,10.30
2019-01-03T16:02:07.149Z,9.43
2019-01-03T16:04:35.964Z,9.30
2019-01-03T16:07:04.858Z,9.00
2019-01-03T16:09:34.119Z,9.58
2019-01-03T16:12:03.424Z,10.82
2019-01-03T16:14:32.346Z,9.15
2019-01-03T16:17:01.783Z,9.80
2019-01-03T16:19:30.608Z,9.60
2019-01-03T16:21:59.440Z,9.33
2019-01-03T16:24:28.291Z,9.05
2019-01-03T16:26:57.071Z,9.85
2019-01-03T16:29:26.462Z,10.50
2019-01-03T16:31:55.339Z,13.15
2019-01-03T16:34:24.427Z,9.18
2019-01-03T16:36:53.580Z,9.70
2019-01-03T16:39:23.859Z,8.45
2019-01-03T16:41:52.891Z,8.98
2019-01-03T16:44:21.824Z,8.78
2019-01-03T16:46:50.758Z,8.38
2019-01-03T16:49:19.920Z,8.20
2019-01-03T16:51:48.934Z,8.40
2019-01-03T16:54:18.080Z,9.03
2019-01-03T16:56:47.153Z,9.03
2019-01-03T16:59:16.055Z,8.58
2019-01-03T17:01:45.054Z,8.75
2019-01-03T17:04:13.899Z,8.73
2019-01-03T17:06:42.873Z,7.92
2019-01-03T17:09:11.910Z,9.43
2019-01-03T17:11:41.060Z,8.43
2019-01-03T17:14:10.348Z,9.53
2019-01-03T17:16:40.270Z,8.15
2019-01-03T17:19:09.552Z,9.25
2019-01-03T17:21:38.767Z,9.00
2019-01-03T17:24:07.703Z,8.20
2019-01-03T17:26:36.690Z,9.80
2019-01-03T17:29:05.859Z,8.90
2019-01-03T17:31:34.805Z,9.40
2019-01-03T17:34:03.690Z,9.60
2019-01-03T17:36:32.634Z,11.33
2019-01-03T17:39:01.764Z,12.45
2019-01-03T17:41:31.131Z,10.40
2019-01-03T17:44:00.681Z,9.30
2019-01-03T17:46:30.302Z,10.45
2019-01-03T17:48:59.328Z,9.35
2019-01-03T17:51:29.237Z,10.00
2019-01-03T17:53:58.380Z,8.73
2019-01-03T17:56:27.215Z,9.10
2019-01-03T17:58:56.382Z,8.80
2019-01-03T18:01:25.457Z,8.63
2019-01-03T18:03:55.652Z,9.00
2019-01-03T18:06:24.605Z,8.95
2019-01-03T18:08:53.679Z,10.68
2019-01-03T18:11:23.295Z,8.10
2019-01-03T18:13:52.200Z,16.73
2019-01-03T18:16:22.114Z,8.55
2019-01-03T18:18:51.170Z,8.73
2019-01-03T18:21:20.023Z,7.90
2019-01-03T18:23:49.775Z,8.10
2019-01-03T18:26:18.735Z,7.90
2019-01-03T18:28:47.731Z,7.33
2019-01-03T18:31:17.078Z,8.08
2019-01-03T18:33:46.329Z,8.08
2019-01-03T18:36:15.698Z,8.10
2019-01-03T18:38:44.534Z,8.03
2019-01-03T18:41:13.544Z,8.50
2019-01-03T18:43:42.344Z,8.08
2019-01-03T18:46:11.221Z,8.20
2019-01-03T18:48:40.158Z,7.90
2019-01-03T18:51:09.328Z,8.05
2019-01-03T18:53:38.242Z,9.53
2019-01-03T18:56:08.380Z,8.18
2019-01-03T18:58:37.553Z,8.30
2019-01-03T19:01:06.516Z,7.50
2019-01-03T19:03:35.501Z,7.08
2019-01-03T19:06:04.864Z,7.70
2019-01-03T19:08:33.815Z,8.03
2019-01-03T19:11:02.820Z,7.53
2019-01-03T19:13:31.964Z,8.25
2019-01-03T19:16:01.142Z,8.60
2019-01-03T19:18:29.931Z,8.70
2019-01-03T19:20:59.335Z,9.63
2019-01-03T19:23:28.398Z,9.90
2019-01-03T19:25:58.881Z,12.18
2019-01-03T19:28:28.579Z,8.83
2019-01-03T19:30:57.681Z,7.28
2019-01-03T19:33:26.617Z,6.97
2019-01-03T19:35:55.599Z,7.05
2019-01-03T19:38:24.602Z,6.30
2019-01-03T19:40:55.417Z,7.70
2019-01-03T19:43:24.980Z,7.60
2019-01-03T19:45:54.330Z,6.85
2019-01-03T19:48:23.732Z,7.20
2019-01-03T19:50:52.892Z,7.40
2019-01-03T19:53:22.349Z,6.08
2019-01-03T19:55:51.813Z,7.12
2019-01-03T19:58:21.065Z,7.58
2019-01-03T20:00:50.409Z,7.03
2019-01-03T20:03:19.351Z,6.83
2019-01-03T20:05:49.004Z,6.75
2019-01-03T20:08:18.448Z,6.78
2019-01-03T20:10:47.413Z,6.30
2019-01-03T20:13:17.845Z,6.35
2019-01-03T20:15:46.891Z,7.28
2019-01-03T20:18:15.987Z,6.47
2019-01-03T20:20:44.869Z,5.97
2019-01-03T20:23:15.156Z,5.55
2019-01-03T20:25:44.767Z,10.80
2019-01-03T20:28:13.832Z,9.73
2019-01-03T20:30:43.378Z,6.47
2019-01-03T20:33:12.680Z,5.75
2019-01-03T20:35:41.886Z,6.37
2019-01-03T20:38:10.947Z,6.35
2019-01-03T20:40:40.625Z,6.40
2019-01-03T20:43:09.631Z,6.33
2019-01-03T20:45:38.803Z,6.42
2019-01-03T20:48:07.879Z,7.30
2019-01-03T20:50:36.977Z,8.13
2019-01-03T20:53:06.327Z,6.30
2019-01-03T20:55:35.565Z,7.03
2019-01-03T20:58:04.630Z,6.90
2019-01-03T21:00:33.922Z,7.33
2019-01-03T21:03:03.405Z,7.10
2019-01-03T21:05:32.571Z,6.65
2019-01-03T21:08:04.602Z,7.20
2019-01-03T21:10:33.801Z,6.17
2019-01-03T21:13:03.068Z,6.58
2019-01-03T21:15:32.082Z,5.97
2019-01-03T21:18:01.267Z,7.28
2019-01-03T21:20:30.857Z,14.68
2019-01-03T21:22:59.703Z,13.13
2019-01-03T21:25:28.775Z,6.25
2019-01-03T21:27:58.675Z,6.75
2019-01-03T21:30:27.591Z,6.33
2019-01-03T21:32:56.651Z,5.22
2019-01-03T21:35:25.773Z,5.10
2019-01-03T21:37:55.320Z,6.15
2019-01-03T21:40:24.535Z,5.72
2019-01-03T21:42:53.517Z,6.20
2019-01-03T21:45:22.456Z,6.47
2019-01-03T21:47:51.784Z,6.95
2019-01-03T21:50:20.742Z,6.75
2019-01-03T21:52:52.071Z,7.12
2019-01-03T21:55:21.205Z,6.17
2019-01-03T21:57:51.960Z,6.75
2019-01-03T22:00:21.336Z,6.40
2019-01-03T22:02:50.403Z,7.37
2019-01-03T22:05:20.023Z,7.67
2019-01-03T22:07:49.574Z,7.62
2019-01-03T22:10:18.913Z,6.10
2019-01-03T22:12:48.072Z,5.90
2019-01-03T22:15:17.300Z,5.05
2019-01-03T22:17:46.548Z,6.50
2019-01-03T22:20:17.653Z,6.15
2019-01-03T22:22:47.054Z,7.05
2019-01-03T22:25:16.349Z,5.33
2019-01-03T22:27:46.310Z,6.70
2019-01-03T22:30:15.332Z,7.20
2019-01-03T22:32:44.675Z,7.83
2019-01-03T22:35:14.705Z,7.08
2019-01-03T22:37:43.983Z,7.72
2019-01-03T22:40:13.498Z,7.35
2019-01-03T22:42:42.848Z,8.38
2019-01-03T22:45:12.768Z,6.30
2019-01-03T22:47:41.782Z,7.05
2019-01-03T22:50:11.746Z,6.28
2019-01-03T22:52:41.638Z,6.40
2019-01-03T22:55:10.934Z,6.80
2019-01-03T22:57:39.922Z,7.30
2019-01-03T23:00:28.374Z,7.10
2019-01-03T23:02:57.318Z,6.05
2019-01-03T23:05:26.689Z,6.22
2019-01-03T23:07:55.625Z,7.37
2019-01-03T23:10:25.296Z,7.00
2019-01-03T23:12:54.328Z,8.33
2019-01-03T23:15:23.206Z,8.68
2019-01-03T23:17:52.465Z,7.42
2019-01-03T23:20:21.782Z,8.68
2019-01-03T23:22:51.208Z,6.95
2019-01-03T23:25:20.417Z,7.67
2019-01-03T23:27:49.204Z,8.45
2019-01-03T23:30:18.373Z,6.15
2019-01-03T23:32:47.467Z,7.83
2019-01-03T23:35:16.832Z,7.72
2019-01-03T23:37:45.672Z,7.33
2019-01-03T23:40:14.692Z,6.60
2019-01-03T23:42:44.336Z,6.90
2019-01-03T23:45:31.147Z,8.40
2019-01-03T23:48:00.932Z,7.62
2019-01-03T23:50:34.246Z,6.47
2019-01-03T23:53:03.380Z,6.87
2019-01-03T23:55:36.341Z,7.47
2019-01-03T23:58:05.255Z,9.50
